createdAt,value
2022-08-07T00:00:34.539Z,100882.13
2022-08-07T00:03:10.665Z,100876.41
2022-08-07T00:05:49.158Z,100879.69
2022-08-07T00:08:29.751Z,100879.25
2022-08-07T00:11:03.637Z,100883.34
2022-08-07T00:13:46.260Z,100901.75
2022-08-07T00:16:28.333Z,100910.34
2022-08-07T00:19:09.515Z,100916.44
2022-08-07T00:22:05.474Z,100931.94
2022-08-07T00:24:44.378Z,100924.19
2022-08-07T00:27:25.911Z,100941.00
2022-08-07T00:30:21.561Z,100945.03
2022-08-07T00:33:07.738Z,100944.13
2022-08-07T00:35:49.032Z,100945.81
2022-08-07T00:38:31.769Z,100944.56
2022-08-07T00:41:14.657Z,100940.53
2022-08-07T00:43:59.021Z,100950.75
2022-08-07T00:46:38.032Z,100961.34
2022-08-07T00:49:24.985Z,100962.19
2022-08-07T00:52:28.377Z,100951.06
2022-08-07T00:55:10.613Z,100948.69
2022-08-07T00:57:55.291Z,100954.75
2022-08-07T01:00:31.641Z,100962.97
2022-08-07T01:03:19.212Z,100964.94
2022-08-07T01:06:18.738Z,100956.47
2022-08-07T01:09:04.277Z,100940.09
2022-08-07T01:12:09.621Z,100942.06
2022-08-07T01:14:44.987Z,100946.53
2022-08-07T01:17:28.448Z,100942.97
2022-08-07T01:20:16.683Z,100938.47
2022-08-07T01:23:12.989Z,100927.50
2022-08-07T01:25:56.340Z,100927.88
2022-08-07T01:28:46.171Z,100924.91
2022-08-07T01:31:42.787Z,100926.97
2022-08-07T01:34:30.771Z,100924.91
2022-08-07T01:37:09.889Z,100933.03
2022-08-07T01:39:47.160Z,100924.53
2022-08-07T01:42:57.669Z,100921.31
2022-08-07T01:45:40.143Z,100914.00
2022-08-07T01:48:30.820Z,100906.22
2022-08-07T01:52:01.227Z,100895.59
2022-08-07T01:54:33.018Z,100888.97
2022-08-07T01:57:25.460Z,100880.50
2022-08-07T02:00:16.344Z,100874.78
2022-08-07T02:03:11.902Z,100881.28
2022-08-07T02:06:30.789Z,100878.72
2022-08-07T02:09:09.407Z,100883.63
2022-08-07T02:12:03.236Z,100882.13
2022-08-07T02:14:48.162Z,100885.31
2022-08-07T02:17:34.062Z,100888.19
2022-08-07T02:20:17.535Z,100873.09
2022-08-07T02:23:00.097Z,100881.28
2022-08-07T02:26:30.636Z,100870.75
2022-08-07T02:28:43.695Z,100862.16
2022-08-07T02:31:28.634Z,100861.28
2022-08-07T02:34:11.645Z,100858.41
2022-08-07T02:37:08.909Z,100851.47
2022-08-07T02:40:12.019Z,100838.88
2022-08-07T02:42:41.717Z,100836.44
2022-08-07T02:46:01.601Z,100836.00
2022-08-07T02:48:26.009Z,100822.50
2022-08-07T02:51:41.704Z,100820.03
2022-08-07T02:54:16.905Z,100822.50
2022-08-07T02:56:54.025Z,100812.69
2022-08-07T02:59:31.704Z,100811.53
2022-08-07T03:02:17.892Z,100806.97
2022-08-07T03:04:59.269Z,100809.91
2022-08-07T03:08:07.683Z,100822.50
2022-08-07T03:10:51.964Z,100820.13
2022-08-07T03:13:39.116Z,100822.16
2022-08-07T03:16:30.417Z,100805.91
2022-08-07T03:19:11.581Z,100804.19
2022-08-07T03:21:57.661Z,100801.34
2022-08-07T03:24:43.484Z,100820.66
2022-08-07T03:27:30.827Z,100821.44
2022-08-07T03:30:24.566Z,100821.00
2022-08-07T03:32:58.882Z,100816.19
2022-08-07T03:35:50.279Z,100807.69
2022-08-07T03:38:29.910Z,100812.59
2022-08-07T03:41:11.352Z,100811.25
2022-08-07T03:43:57.455Z,100815.38
2022-08-07T03:47:10.905Z,100821.44
2022-08-07T03:49:47.975Z,100822.69
2022-08-07T03:52:34.788Z,100844.78
2022-08-07T03:55:20.837Z,100845.19
2022-08-07T03:58:08.707Z,100847.25
2022-08-07T04:01:11.175Z,100843.16
2022-08-07T04:03:55.056Z,100848.44
2022-08-07T04:06:37.577Z,100852.19
2022-08-07T04:09:19.270Z,100856.69
2022-08-07T04:12:21.487Z,100854.81
2022-08-07T04:14:58.499Z,100860.53
2022-08-07T04:18:31.812Z,100862.22
2022-08-07T04:20:54.335Z,100871.34
2022-08-07T04:23:43.360Z,100872.94
2022-08-07T04:26:32.783Z,100886.84
2022-08-07T04:29:17.694Z,100901.59
2022-08-07T04:32:10.092Z,100905.25
2022-08-07T04:34:50.580Z,100917.16
2022-08-07T04:37:26.419Z,100911.06
2022-08-07T04:40:08.168Z,100913.91
2022-08-07T04:42:46.287Z,100918.03
2022-08-07T04:45:57.878Z,100920.06
2022-08-07T04:49:17.704Z,100930.78
2022-08-07T04:52:36.727Z,100939.81
2022-08-07T04:55:15.217Z,100965.50
2022-08-07T04:58:48.774Z,100962.75
2022-08-07T05:01:44.703Z,100975.84
2022-08-07T05:05:01.772Z,100981.09
2022-08-07T05:08:11.056Z,100995.47
2022-08-07T05:11:11.575Z,101020.84
2022-08-07T05:14:52.969Z,101036.72
2022-08-07T05:17:52.529Z,101039.56
2022-08-07T05:20:43.095Z,101041.25
2022-08-07T05:23:49.104Z,101045.78
2022-08-07T05:26:26.122Z,101057.66
2022-08-07T05:29:18.591Z,101045.44
2022-08-07T05:32:03.462Z,101052.38
2022-08-07T05:34:42.996Z,101063.44
2022-08-07T05:37:25.424Z,101063.44
2022-08-07T05:40:17.370Z,101065.94
2022-08-07T05:43:11.623Z,101073.69
2022-08-07T05:45:56.454Z,101074.88
2022-08-07T05:48:36.042Z,101063.94
2022-08-07T05:51:40.654Z,101060.28
2022-08-07T05:54:44.126Z,101080.66
2022-08-07T05:57:38.007Z,101074.56
2022-08-07T06:00:34.517Z,101073.38
2022-08-07T06:03:15.057Z,101061.56
2022-08-07T06:06:03.777Z,101057.88
2022-08-07T06:08:44.205Z,101044.44
2022-08-07T06:11:28.858Z,101046.91
2022-08-07T06:14:21.402Z,101038.78
2022-08-07T06:17:12.553Z,101040.03
2022-08-07T06:20:04.130Z,101033.50
2022-08-07T06:23:24.670Z,101034.75
2022-08-07T06:25:56.951Z,101060.00
2022-08-07T06:28:37.037Z,101057.59
2022-08-07T06:31:46.728Z,101055.16
2022-08-07T06:34:40.690Z,101055.16
2022-08-07T06:37:17.291Z,101047.34
2022-08-07T06:40:16.345Z,101060.75
2022-08-07T06:43:21.379Z,101069.75
2022-08-07T06:46:35.112Z,101070.63
2022-08-07T06:49:14.926Z,101056.81
2022-08-07T06:52:02.787Z,101057.28
2022-08-07T06:55:31.489Z,101055.31
2022-08-07T06:57:52.243Z,101038.19
2022-08-07T07:00:43.149Z,101039.44
2022-08-07T07:03:17.082Z,101044.75
2022-08-07T07:06:06.311Z,101032.53
2022-08-07T07:08:50.411Z,101031.72
2022-08-07T07:12:08.477Z,101035.47
2022-08-07T07:14:31.099Z,101040.72
2022-08-07T07:17:16.215Z,101032.97
2022-08-07T07:20:02.882Z,101026.44
2022-08-07T07:22:50.940Z,101020.72
2022-08-07T07:26:34.831Z,101021.59
2022-08-07T07:29:57.031Z,101016.69
2022-08-07T07:32:23.766Z,101014.28
2022-08-07T07:35:08.980Z,101006.97
2022-08-07T07:37:59.307Z,101002.50
2022-08-07T07:40:57.682Z,101007.41
2022-08-07T07:43:48.015Z,101003.75
2022-08-07T07:46:54.099Z,101008.19
2022-08-07T07:50:33.578Z,100995.19
2022-08-07T07:52:42.092Z,101004.19
2022-08-07T07:55:21.319Z,101000.09
2022-08-07T07:58:05.905Z,100993.56
2022-08-07T08:00:45.725Z,100998.03
2022-08-07T08:04:05.754Z,100996.84
2022-08-07T08:06:37.178Z,100998.09
2022-08-07T08:09:13.575Z,101001.75
2022-08-07T08:11:59.196Z,100990.34
2022-08-07T08:14:39.456Z,100995.25
2022-08-07T08:17:57.270Z,100995.25
2022-08-07T08:20:26.217Z,100990.41
2022-08-07T08:23:28.018Z,100993.66
2022-08-07T08:26:21.354Z,100996.53
2022-08-07T08:29:03.643Z,101000.22
2022-08-07T08:32:16.976Z,100997.38
2022-08-07T08:34:53.996Z,100996.53
2022-08-07T08:38:01.362Z,100989.22
2022-08-07T08:40:39.541Z,100987.97
2022-08-07T08:43:41.809Z,101005.09
2022-08-07T08:46:27.173Z,101001.09
2022-08-07T08:48:59.027Z,100997.00
2022-08-07T08:52:00.793Z,101010.81
2022-08-07T08:54:57.038Z,101007.16
2022-08-07T08:58:01.982Z,101008.47
2022-08-07T09:00:56.472Z,101011.34
2022-08-07T09:03:47.762Z,101008.41
2022-08-07T09:06:42.811Z,101011.25
2022-08-07T09:10:03.307Z,101005.63
2022-08-07T09:13:36.991Z,101006.81
2022-08-07T09:16:30.810Z,101010.06
2022-08-07T09:19:50.650Z,100998.31
2022-08-07T09:24:28.508Z,101006.03
2022-08-07T09:25:43.218Z,100996.69
2022-08-07T09:30:01.575Z,100994.19
2022-08-07T09:32:09.108Z,100999.91
2022-08-07T09:36:05.426Z,101003.16
2022-08-07T09:38:27.258Z,101001.16
2022-08-07T09:41:36.205Z,101003.19
2022-08-07T09:45:03.436Z,100992.22
2022-08-07T09:48:30.164Z,100987.38
2022-08-07T09:52:16.158Z,100995.50
2022-08-07T09:55:36.888Z,100993.09
2022-08-07T09:58:34.828Z,100984.97
2022-08-07T10:01:15.018Z,100980.41
2022-08-07T10:04:39.335Z,100983.28
2022-08-07T10:07:31.734Z,100982.84
2022-08-07T10:10:23.218Z,100977.50
2022-08-07T10:14:00.376Z,100972.25
2022-08-07T10:16:39.543Z,100973.84
2022-08-07T10:19:14.671Z,100965.28
2022-08-07T10:22:14.685Z,100968.91
2022-08-07T10:24:54.468Z,100953.38
2022-08-07T10:27:46.032Z,100961.50
2022-08-07T10:30:34.175Z,100948.22
2022-08-07T10:34:06.017Z,100948.16
2022-08-07T10:36:40.574Z,100940.06
2022-08-07T10:40:02.850Z,100938.72
2022-08-07T10:43:12.562Z,100934.50
2022-08-07T10:45:57.492Z,100929.22
2022-08-07T10:49:24.539Z,100930.03
2022-08-07T10:52:22.246Z,100923.44
2022-08-07T10:55:42.300Z,100920.22
2022-08-07T10:58:32.006Z,100931.66
2022-08-07T11:01:22.217Z,100929.22
2022-08-07T11:04:31.451Z,100925.13
2022-08-07T11:07:14.932Z,100932.53
2022-08-07T11:10:11.149Z,100929.22
2022-08-07T11:13:16.773Z,100926.75
2022-08-07T11:16:29.704Z,100925.13
2022-08-07T11:19:05.077Z,100917.44
2022-08-07T11:21:44.109Z,100917.00
2022-08-07T11:24:25.177Z,100906.31
2022-08-07T11:28:02.434Z,100913.28
2022-08-07T11:31:04.115Z,100906.75
2022-08-07T11:34:00.719Z,100901.84
2022-08-07T11:36:56.817Z,100898.56
2022-08-07T11:40:00.632Z,100893.66
2022-08-07T11:42:55.297Z,100890.00
2022-08-07T11:45:49.922Z,100894.88
2022-08-07T11:49:50.489Z,100896.16
2022-08-07T11:52:14.619Z,100889.09
2022-08-07T11:55:13.042Z,100886.31
2022-08-07T11:58:16.459Z,100880.19
2022-08-07T12:01:08.538Z,100884.22
2022-08-07T12:04:13.222Z,100881.00
2022-08-07T12:07:08.082Z,100870.38
2022-08-07T12:10:08.647Z,100881.38
2022-08-07T12:12:51.843Z,100879.41
2022-08-07T12:16:05.339Z,100865.47
2022-08-07T12:19:14.679Z,100856.47
2022-08-07T12:22:39.549Z,100855.59
2022-08-07T12:26:05.853Z,100853.56
2022-08-07T12:28:37.651Z,100854.81
2022-08-07T12:31:37.690Z,100842.22
2022-08-07T12:34:25.975Z,100854.84
2022-08-07T12:37:08.612Z,100838.47
2022-08-07T12:40:01.112Z,100830.72
2022-08-07T12:42:36.988Z,100832.75
2022-08-07T12:45:27.686Z,100834.38
2022-08-07T12:48:28.271Z,100825.81
2022-08-07T12:51:18.015Z,100820.88
2022-08-07T12:54:36.946Z,100815.97
2022-08-07T12:57:12.391Z,100823.66
2022-08-07T13:00:07.245Z,100818.41
2022-08-07T13:04:02.597Z,100820.81
2022-08-07T13:07:00.909Z,100810.66
2022-08-07T13:10:28.777Z,100807.38
2022-08-07T13:13:50.150Z,100800.03
2022-08-07T13:16:50.781Z,100793.09
2022-08-07T13:19:50.538Z,100791.53
2022-08-07T13:22:53.565Z,100786.56
2022-08-07T13:25:35.712Z,100775.59
2022-08-07T13:28:18.610Z,100778.88
2022-08-07T13:31:13.541Z,100771.13
2022-08-07T13:34:32.093Z,100766.22
2022-08-07T13:36:57.867Z,100764.25
2022-08-07T13:40:33.028Z,100757.66
2022-08-07T13:42:52.873Z,100744.09
2022-08-07T13:46:12.936Z,100743.72
2022-08-07T13:48:33.680Z,100744.97
2022-08-07T13:51:26.970Z,100744.97
2022-08-07T13:54:05.084Z,100743.38
2022-08-07T13:56:40.933Z,100738.00
2022-08-07T13:59:32.418Z,100738.47
2022-08-07T14:02:29.765Z,100738.00
2022-08-07T14:05:17.823Z,100726.25
2022-08-07T14:08:01.457Z,100727.84
2022-08-07T14:10:44.437Z,100722.50
2022-08-07T14:13:45.235Z,100720.09
2022-08-07T14:16:33.043Z,100714.38
2022-08-07T14:20:39.268Z,100717.59
2022-08-07T14:22:11.623Z,100716.00
2022-08-07T14:24:50.234Z,100708.66
2022-08-07T14:28:10.505Z,100706.19
2022-08-07T14:30:33.319Z,100708.56
2022-08-07T14:33:10.094Z,100700.81
2022-08-07T14:35:58.669Z,100699.59
2022-08-07T14:38:36.401Z,100700.28
2022-08-07T14:41:18.381Z,100697.44
2022-08-07T14:44:11.929Z,100696.56
2022-08-07T14:47:08.962Z,100690.84
2022-08-07T14:49:57.235Z,100690.03
2022-08-07T14:52:36.031Z,100693.78
2022-08-07T14:55:18.239Z,100685.22
2022-08-07T15:00:54.895Z,100689.25
2022-08-07T15:06:30.188Z,100693.69
2022-08-07T15:09:59.647Z,100692.91
2022-08-07T15:12:10.130Z,100699.78
2022-08-07T15:15:21.150Z,100699.50
2022-08-07T15:18:14.520Z,100700.66
2022-08-07T15:21:08.269Z,100709.13
2022-08-07T15:25:15.129Z,100715.28
2022-08-07T15:27:15.525Z,100707.09
2022-08-07T15:30:08.586Z,100710.38
2022-08-07T15:33:04.202Z,100712.44
2022-08-07T15:36:05.270Z,100716.16
2022-08-07T15:38:59.123Z,100718.59
2022-08-07T15:42:43.289Z,100719.75
2022-08-07T15:45:00.931Z,100711.63
2022-08-07T15:51:08.870Z,100718.13
2022-08-07T15:53:42.239Z,100710.38
2022-08-07T15:56:34.889Z,100721.44
2022-08-07T15:59:39.161Z,100708.69
2022-08-07T16:02:36.438Z,100708.34
2022-08-07T16:05:18.737Z,100704.22
2022-08-07T16:08:32.777Z,100704.16
2022-08-07T16:11:04.247Z,100704.97
2022-08-07T16:14:09.407Z,100699.69
2022-08-07T16:18:01.497Z,100697.63
2022-08-07T16:20:55.122Z,100694.78
2022-08-07T16:24:33.471Z,100692.81
2022-08-07T16:27:18.518Z,100693.19
2022-08-07T16:30:10.722Z,100688.25
2022-08-07T16:34:01.473Z,100683.75
2022-08-07T16:36:22.073Z,100685.78
2022-08-07T16:39:10.192Z,100679.69
2022-08-07T16:42:17.502Z,100679.69
2022-08-07T16:45:24.701Z,100677.22
2022-08-07T16:49:03.978Z,100677.22
2022-08-07T16:52:51.447Z,100671.50
2022-08-07T16:55:48.800Z,100672.75
2022-08-07T16:58:30.167Z,100673.56
2022-08-07T17:01:34.677Z,100673.94
2022-08-07T17:04:50.926Z,100671.56
2022-08-07T17:07:55.953Z,100671.94
2022-08-07T17:10:54.208Z,100665.78
2022-08-07T17:14:17.829Z,100666.63
2022-08-07T17:17:00.120Z,100666.63
2022-08-07T17:20:01.957Z,100669.00
2022-08-07T17:23:12.946Z,100664.25
2022-08-07T17:26:23.543Z,100661.75
2022-08-07T17:29:09.731Z,100667.91
2022-08-07T17:32:31.167Z,100673.63
2022-08-07T17:35:55.651Z,100672.44
2022-08-07T17:38:35.322Z,100681.00
2022-08-07T17:42:03.097Z,100684.31
2022-08-07T17:44:33.532Z,100682.66
2022-08-07T17:47:37.955Z,100680.69
2022-08-07T17:50:30.884Z,100684.75
2022-08-07T17:54:00.520Z,100679.94
2022-08-07T17:56:52.565Z,100677.03
2022-08-07T17:59:52.340Z,100682.72
2022-08-07T18:02:35.987Z,100685.94
2022-08-07T18:06:02.930Z,100686.03
2022-08-07T18:09:00.290Z,100681.91
2022-08-07T18:12:19.375Z,100685.13
2022-08-07T18:15:33.984Z,100681.09
2022-08-07T18:18:46.909Z,100680.31
2022-08-07T18:21:41.387Z,100685.59
2022-08-07T18:24:33.691Z,100685.59
2022-08-07T18:27:21.220Z,100677.44
2022-08-07T18:30:31.798Z,100694.16
2022-08-07T18:33:33.725Z,100692.00
2022-08-07T18:36:32.908Z,100696.03
2022-08-07T18:40:08.669Z,100698.06
2022-08-07T18:42:54.684Z,100711.47
2022-08-07T18:46:24.665Z,100726.19
2022-08-07T18:50:30.926Z,100738.88
2022-08-07T18:52:40.933Z,100752.72
2022-08-07T18:55:56.024Z,100755.63
2022-08-07T18:58:51.261Z,100768.66
2022-08-07T19:02:32.205Z,100766.16
2022-08-07T19:04:54.890Z,100775.94
2022-08-07T19:08:05.263Z,100778.84
2022-08-07T19:11:36.579Z,100781.69
2022-08-07T19:14:26.314Z,100794.28
2022-08-07T19:17:09.301Z,100800.84
2022-08-07T19:20:05.091Z,100804.56
2022-08-07T19:22:48.448Z,100805.34
2022-08-07T19:26:22.888Z,100804.13
2022-08-07T19:30:54.441Z,100795.97
2022-08-07T19:32:10.539Z,100795.56
2022-08-07T19:34:34.108Z,100798.84
2022-08-07T19:37:17.299Z,100799.59
2022-08-07T19:40:09.946Z,100807.78
2022-08-07T19:42:43.213Z,100808.19
2022-08-07T19:46:01.189Z,100806.16
2022-08-07T19:48:42.391Z,100809.44
2022-08-07T19:51:51.755Z,100809.84
2022-08-07T19:54:32.373Z,100804.50
2022-08-07T19:58:04.681Z,100798.41
2022-08-07T20:00:29.049Z,100795.56
2022-08-07T20:03:34.552Z,100784.94
2022-08-07T20:06:15.239Z,100780.88
2022-08-07T20:09:04.690Z,100780.44
2022-08-07T20:12:22.056Z,100780.06
2022-08-07T20:14:49.706Z,100773.50
2022-08-07T20:17:38.539Z,100766.56
2022-08-07T20:20:13.555Z,100771.06
2022-08-07T20:22:57.292Z,100768.97
2022-08-07T20:25:40.346Z,100767.00
2022-08-07T20:28:17.216Z,100758.84
2022-08-07T20:30:58.279Z,100762.50
2022-08-07T20:33:37.595Z,100762.50
2022-08-07T20:36:13.353Z,100762.09
2022-08-07T20:39:00.648Z,100756.81
2022-08-07T20:41:43.688Z,100759.66
2022-08-07T20:44:27.613Z,100759.22
2022-08-07T20:47:09.468Z,100760.03
2022-08-07T20:49:58.331Z,100755.16
2022-08-07T20:52:51.100Z,100754.69
2022-08-07T20:55:35.854Z,100746.56
2022-08-07T20:58:19.208Z,100747.81
2022-08-07T21:01:19.727Z,100742.47
2022-08-07T21:04:19.626Z,100744.53
2022-08-07T21:06:53.468Z,100751.03
2022-08-07T21:09:53.155Z,100755.16
2022-08-07T21:12:38.678Z,100760.41
2022-08-07T21:15:19.509Z,100757.53
2022-08-07T21:18:25.868Z,100764.06
2022-08-07T21:21:04.770Z,100765.31
2022-08-07T21:23:53.214Z,100762.88
2022-08-07T21:26:42.883Z,100764.50
2022-08-07T21:29:47.212Z,100775.13
2022-08-07T21:32:43.796Z,100783.25
2022-08-07T21:35:59.986Z,100795.13
2022-08-07T21:38:48.873Z,100794.66
2022-08-07T21:42:00.632Z,100798.78
2022-08-07T21:44:51.283Z,100806.56
2022-08-07T21:47:34.699Z,100805.28
2022-08-07T21:50:31.116Z,100811.00
2022-08-07T21:53:46.478Z,100806.56
2022-08-07T21:56:36.191Z,100826.88
2022-08-07T22:00:02.967Z,100820.84
2022-08-07T22:02:45.586Z,100818.78
2022-08-07T22:05:44.743Z,100817.53
2022-08-07T22:08:26.651Z,100822.44
2022-08-07T22:11:04.808Z,100825.28
2022-08-07T22:13:51.234Z,100833.06
2022-08-07T22:16:47.795Z,100837.50
2022-08-07T22:19:30.383Z,100840.00
2022-08-07T22:22:29.398Z,100852.59
2022-08-07T22:25:18.402Z,100849.38
2022-08-07T22:28:24.612Z,100857.88
2022-08-07T22:31:56.094Z,100856.31
2022-08-07T22:34:53.463Z,100856.69
2022-08-07T22:38:03.118Z,100848.47
2022-08-07T22:40:51.567Z,100853.75
2022-08-07T22:43:43.968Z,100844.41
2022-08-07T22:47:01.859Z,100839.56
2022-08-07T22:49:37.655Z,100842.75
2022-08-07T22:52:36.785Z,100839.47
2022-08-07T22:55:30.071Z,100832.16
2022-08-07T22:58:16.466Z,100829.41
2022-08-07T23:01:01.875Z,100839.63
2022-08-07T23:03:58.088Z,100843.69
2022-08-07T23:06:51.891Z,100846.53
2022-08-07T23:10:04.377Z,100846.97
2022-08-07T23:13:29.005Z,100839.63
2022-08-07T23:16:48.635Z,100839.63
2022-08-07T23:20:51.472Z,100841.63
2022-08-07T23:24:05.050Z,100848.59
2022-08-07T23:26:54.998Z,100856.75
2022-08-07T23:30:37.970Z,100862.09
2022-08-07T23:34:18.671Z,100859.97
2022-08-07T23:35:45.436Z,100858.38
2022-08-07T23:38:36.872Z,100860.41
2022-08-07T23:42:04.140Z,100849.41
2022-08-07T23:45:15.301Z,100849.88
2022-08-07T23:48:25.297Z,100855.94
2022-08-07T23:53:00.637Z,100860.41
2022-08-07T23:54:46.853Z,100860.84
2022-08-07T23:57:34.900Z,100850.63
